sensor_id;sensor_type;location;lat;lon;timestamp;pressure;altitude;pressure_sealevel;temperature;humidity
16194;BME280;8204;53.582;10.080;2022-07-22T00:02:01;100819.22;;;22.17;100.00
16194;BME280;8204;53.582;10.080;2022-07-22T00:04:28;100842.75;;;22.20;100.00
16194;BME280;8204;53.582;10.080;2022-07-22T00:06:55;100854.00;;;22.11;100.00
16194;BME280;8204;53.582;10.080;2022-07-22T00:09:23;100859.50;;;22.16;100.00
16194;BME280;8204;53.582;10.080;2022-07-22T00:11:50;100842.41;;;22.17;100.00
16194;BME280;8204;53.582;10.080;2022-07-22T00:14:17;100839.19;;;22.15;100.00
16194;BME280;8204;53.582;10.080;2022-07-22T00:16:43;100841.97;;;22.20;100.00
16194;BME280;8204;53.582;10.080;2022-07-22T00:19:10;100855.66;;;22.23;100.00
16194;BME280;8204;53.582;10.080;2022-07-22T00:21:37;100845.09;;;22.28;100.00
16194;BME280;8204;53.582;10.080;2022-07-22T00:24:04;100857.44;;;22.29;100.00
16194;BME280;8204;53.582;10.080;2022-07-22T00:26:32;100867.50;;;22.27;100.00
16194;BME280;8204;53.582;10.080;2022-07-22T00:28:58;100848.44;;;22.24;100.00
16194;BME280;8204;53.582;10.080;2022-07-22T00:31:25;100835.94;;;22.24;100.00
16194;BME280;8204;53.582;10.080;2022-07-22T00:33:51;100835.09;;;22.24;100.00
16194;BME280;8204;53.582;10.080;2022-07-22T00:36:18;100834.53;;;22.22;100.00
16194;BME280;8204;53.582;10.080;2022-07-22T00:38:45;100823.16;;;22.15;100.00
16194;BME280;8204;53.582;10.080;2022-07-22T00:41:12;100853.44;;;21.98;100.00
16194;BME280;8204;53.582;10.080;2022-07-22T00:43:50;100876.69;;;21.79;100.00
16194;BME280;8204;53.582;10.080;2022-07-22T00:46:17;100862.28;;;21.69;100.00
16194;BME280;8204;53.582;10.080;2022-07-22T00:48:43;100849.03;;;21.62;100.00
16194;BME280;8204;53.582;10.080;2022-07-22T00:51:10;100832.69;;;21.59;100.00
16194;BME280;8204;53.582;10.080;2022-07-22T00:53:37;100854.97;;;21.46;100.00
16194;BME280;8204;53.582;10.080;2022-07-22T00:56:04;100857.31;;;21.25;100.00
16194;BME280;8204;53.582;10.080;2022-07-22T00:58:30;100856.06;;;21.10;100.00
16194;BME280;8204;53.582;10.080;2022-07-22T01:00:58;100834.81;;;21.03;100.00
16194;BME280;8204;53.582;10.080;2022-07-22T01:03:25;100796.13;;;21.01;100.00
16194;BME280;8204;53.582;10.080;2022-07-22T01:05:51;100776.00;;;21.05;100.00
16194;BME280;8204;53.582;10.080;2022-07-22T01:08:18;100788.28;;;21.06;100.00
16194;BME280;8204;53.582;10.080;2022-07-22T01:10:44;100812.84;;;21.08;100.00
16194;BME280;8204;53.582;10.080;2022-07-22T01:13:11;100833.41;;;21.01;100.00
16194;BME280;8204;53.582;10.080;2022-07-22T01:15:37;100808.56;;;20.89;100.00
16194;BME280;8204;53.582;10.080;2022-07-22T01:18:06;100818.84;;;20.85;100.00
16194;BME280;8204;53.582;10.080;2022-07-22T01:20:34;100795.84;;;20.73;100.00
16194;BME280;8204;53.582;10.080;2022-07-22T01:23:00;100766.97;;;20.70;100.00
16194;BME280;8204;53.582;10.080;2022-07-22T01:25:27;100760.75;;;20.58;100.00
16194;BME280;8204;53.582;10.080;2022-07-22T01:27:54;100725.28;;;20.46;100.00
16194;BME280;8204;53.582;10.080;2022-07-22T01:30:20;100703.25;;;20.39;100.00
16194;BME280;8204;53.582;10.080;2022-07-22T01:32:47;100653.94;;;20.37;100.00
16194;BME280;8204;53.582;10.080;2022-07-22T01:35:13;100600.16;;;20.28;100.00
16194;BME280;8204;53.582;10.080;2022-07-22T01:37:41;100611.72;;;20.22;100.00
16194;BME280;8204;53.582;10.080;2022-07-22T01:40:09;100698.03;;;20.08;100.00
16194;BME280;8204;53.582;10.080;2022-07-22T01:42:35;100740.69;;;20.02;100.00
16194;BME280;8204;53.582;10.080;2022-07-22T01:45:02;100785.75;;;19.90;100.00
16194;BME280;8204;53.582;10.080;2022-07-22T01:47:29;100840.00;;;19.59;100.00
16194;BME280;8204;53.582;10.080;2022-07-22T01:49:55;100836.63;;;19.45;100.00
16194;BME280;8204;53.582;10.080;2022-07-22T01:52:22;100809.47;;;19.37;100.00
16194;BME280;8204;53.582;10.080;2022-07-22T01:54:50;100797.03;;;19.31;100.00
16194;BME280;8204;53.582;10.080;2022-07-22T01:57:16;100780.91;;;19.26;100.00
16194;BME280;8204;53.582;10.080;2022-07-22T01:59:43;100789.72;;;19.26;100.00
16194;BME280;8204;53.582;10.080;2022-07-22T02:02:09;100739.44;;;19.25;100.00
16194;BME280;8204;53.582;10.080;2022-07-22T02:04:36;100755.97;;;19.27;100.00
16194;BME280;8204;53.582;10.080;2022-07-22T02:07:03;100787.41;;;19.30;100.00
16194;BME280;8204;53.582;10.080;2022-07-22T02:09:29;100763.31;;;19.31;100.00
16194;BME280;8204;53.582;10.080;2022-07-22T02:11:57;100812.38;;;19.29;100.00
16194;BME280;8204;53.582;10.080;2022-07-22T02:14:23;100800.97;;;19.22;100.00
16194;BME280;8204;53.582;10.080;2022-07-22T02:16:50;100795.28;;;19.12;100.00
16194;BME280;8204;53.582;10.080;2022-07-22T02:19:17;100759.28;;;19.22;100.00
16194;BME280;8204;53.582;10.080;2022-07-22T02:21:43;100784.19;;;19.21;100.00
16194;BME280;8204;53.582;10.080;2022-07-22T02:24:10;100805.69;;;19.20;100.00
16194;BME280;8204;53.582;10.080;2022-07-22T02:26:36;100813.44;;;19.21;100.00
16194;BME280;8204;53.582;10.080;2022-07-22T02:29:04;100843.28;;;19.17;100.00
16194;BME280;8204;53.582;10.080;2022-07-22T02:31:31;100839.59;;;19.18;100.00
16194;BME280;8204;53.582;10.080;2022-07-22T02:33:57;100832.47;;;19.18;100.00
16194;BME280;8204;53.582;10.080;2022-07-22T02:36:24;100842.69;;;19.15;100.00
16194;BME280;8204;53.582;10.080;2022-07-22T02:38:51;100852.09;;;19.17;100.00
16194;BME280;8204;53.582;10.080;2022-07-22T02:41:17;100836.56;;;19.14;100.00
16194;BME280;8204;53.582;10.080;2022-07-22T02:43:44;100852.09;;;19.11;100.00
16194;BME280;8204;53.582;10.080;2022-07-22T02:46:11;100888.47;;;19.04;100.00
16194;BME280;8204;53.582;10.080;2022-07-22T02:48:38;100855.38;;;19.00;100.00
16194;BME280;8204;53.582;10.080;2022-07-22T02:51:05;100881.59;;;18.90;100.00
16194;BME280;8204;53.582;10.080;2022-07-22T02:53:31;100872.38;;;18.93;100.00
16194;BME280;8204;53.582;10.080;2022-07-22T02:55:57;100850.31;;;18.92;100.00
16194;BME280;8204;53.582;10.080;2022-07-22T02:58:24;100861.38;;;18.89;100.00
16194;BME280;8204;53.582;10.080;2022-07-22T03:00:50;100863.00;;;18.84;100.00
16194;BME280;8204;53.582;10.080;2022-07-22T03:03:18;100862.78;;;18.85;100.00
16194;BME280;8204;53.582;10.080;2022-07-22T03:05:45;100878.75;;;18.79;100.00
16194;BME280;8204;53.582;10.080;2022-07-22T03:08:11;100871.41;;;18.74;100.00
16194;BME280;8204;53.582;10.080;2022-07-22T03:10:38;100860.97;;;18.79;100.00
16194;BME280;8204;53.582;10.080;2022-07-22T03:13:05;100861.97;;;18.78;100.00
16194;BME280;8204;53.582;10.080;2022-07-22T03:15:31;100869.75;;;18.80;100.00
16194;BME280;8204;53.582;10.080;2022-07-22T03:17:58;100871.59;;;18.79;100.00
16194;BME280;8204;53.582;10.080;2022-07-22T03:20:26;100875.66;;;18.82;100.00
16194;BME280;8204;53.582;10.080;2022-07-22T03:22:52;100867.28;;;18.78;100.00
16194;BME280;8204;53.582;10.080;2022-07-22T03:25:19;100842.59;;;18.78;100.00
16194;BME280;8204;53.582;10.080;2022-07-22T03:27:45;100841.78;;;18.77;100.00
16194;BME280;8204;53.582;10.080;2022-07-22T03:30:12;100845.88;;;18.80;100.00
16194;BME280;8204;53.582;10.080;2022-07-22T03:32:39;100859.53;;;18.83;100.00
16194;BME280;8204;53.582;10.080;2022-07-22T03:35:09;100865.88;;;18.82;100.00
16194;BME280;8204;53.582;10.080;2022-07-22T03:37:37;100869.16;;;18.84;100.00
16194;BME280;8204;53.582;10.080;2022-07-22T03:40:05;100861.59;;;18.81;100.00
16194;BME280;8204;53.582;10.080;2022-07-22T03:42:32;100853.00;;;18.86;100.00
16194;BME280;8204;53.582;10.080;2022-07-22T03:44:58;100865.66;;;18.84;100.00
16194;BME280;8204;53.582;10.080;2022-07-22T03:47:25;100875.25;;;18.78;100.00
16194;BME280;8204;53.582;10.080;2022-07-22T03:49:51;100865.69;;;18.77;100.00
16194;BME280;8204;53.582;10.080;2022-07-22T03:52:18;100889.97;;;18.74;100.00
16194;BME280;8204;53.582;10.080;2022-07-22T03:54:46;100888.34;;;18.73;100.00
16194;BME280;8204;53.582;10.080;2022-07-22T03:57:12;100900.19;;;18.71;100.00
16194;BME280;8204;53.582;10.080;2022-07-22T03:59:39;100875.94;;;18.61;100.00
16194;BME280;8204;53.582;10.080;2022-07-22T04:02:05;100870.19;;;18.64;100.00
16194;BME280;8204;53.582;10.080;2022-07-22T04:04:32;100850.59;;;18.65;100.00
16194;BME280;8204;53.582;10.080;2022-07-22T04:06:58;100841.22;;;18.62;100.00
16194;BME280;8204;53.582;10.080;2022-07-22T04:09:25;100833.22;;;18.69;100.00
16194;BME280;8204;53.582;10.080;2022-07-22T04:11:53;100853.66;;;18.68;100.00
16194;BME280;8204;53.582;10.080;2022-07-22T04:14:19;100871.03;;;18.64;100.00
16194;BME280;8204;53.582;10.080;2022-07-22T04:16:46;100869.41;;;18.63;100.00
16194;BME280;8204;53.582;10.080;2022-07-22T04:19:13;100851.81;;;18.62;100.00
16194;BME280;8204;53.582;10.080;2022-07-22T04:21:40;100859.78;;;18.62;100.00
16194;BME280;8204;53.582;10.080;2022-07-22T04:24:08;100870.41;;;18.56;100.00
16194;BME280;8204;53.582;10.080;2022-07-22T04:26:34;100841.44;;;18.48;100.00
16194;BME280;8204;53.582;10.080;2022-07-22T04:29:03;100849.41;;;18.48;100.00
16194;BME280;8204;53.582;10.080;2022-07-22T04:31:29;100831.81;;;18.53;100.00
16194;BME280;8204;53.582;10.080;2022-07-22T04:33:56;100843.28;;;18.54;100.00
16194;BME280;8204;53.582;10.080;2022-07-22T04:36:23;100850.22;;;18.48;100.00
16194;BME280;8204;53.582;10.080;2022-07-22T04:38:50;100845.31;;;18.45;100.00
16194;BME280;8204;53.582;10.080;2022-07-22T04:41:16;100828.19;;;18.41;100.00
16194;BME280;8204;53.582;10.080;2022-07-22T04:43:43;100835.75;;;18.44;100.00
16194;BME280;8204;53.582;10.080;2022-07-22T04:46:11;100826.53;;;18.40;100.00
16194;BME280;8204;53.582;10.080;2022-07-22T04:48:37;100819.00;;;18.44;100.00
16194;BME280;8204;53.582;10.080;2022-07-22T04:51:04;100827.78;;;18.44;100.00
16194;BME280;8204;53.582;10.080;2022-07-22T04:53:30;100807.97;;;18.47;100.00
16194;BME280;8204;53.582;10.080;2022-07-22T04:55:57;100805.72;;;18.50;100.00
16194;BME280;8204;53.582;10.080;2022-07-22T04:58:23;100750.16;;;18.49;100.00
16194;BME280;8204;53.582;10.080;2022-07-22T05:00:50;100712.00;;;18.50;100.00
16194;BME280;8204;53.582;10.080;2022-07-22T05:03:18;100693.81;;;18.53;100.00
16194;BME280;8204;53.582;10.080;2022-07-22T05:05:44;100685.91;;;18.40;100.00
16194;BME280;8204;53.582;10.080;2022-07-22T05:08:11;100641.47;;;18.30;100.00
16194;BME280;8204;53.582;10.080;2022-07-22T05:10:38;100576.81;;;18.24;100.00
16194;BME280;8204;53.582;10.080;2022-07-22T05:13:04;100521.31;;;18.23;100.00
16194;BME280;8204;53.582;10.080;2022-07-22T05:15:31;100452.50;;;18.28;100.00
16194;BME280;8204;53.582;10.080;2022-07-22T05:17:57;100413.72;;;18.33;100.00
16194;BME280;8204;53.582;10.080;2022-07-22T05:20:25;100404.72;;;18.34;100.00
16194;BME280;8204;53.582;10.080;2022-07-22T05:22:52;100412.06;;;18.32;100.00
16194;BME280;8204;53.582;10.080;2022-07-22T05:25:18;100431.91;;;18.30;100.00
16194;BME280;8204;53.582;10.080;2022-07-22T05:27:52;100421.31;;;18.23;100.00
16194;BME280;8204;53.582;10.080;2022-07-22T05:30:19;100414.41;;;18.16;100.00
16194;BME280;8204;53.582;10.080;2022-07-22T05:32:45;100367.16;;;18.06;100.00
16194;BME280;8204;53.582;10.080;2022-07-22T05:35:12;100322.63;;;18.15;100.00
16194;BME280;8204;53.582;10.080;2022-07-22T05:37:40;100302.28;;;18.09;100.00
16194;BME280;8204;53.582;10.080;2022-07-22T05:40:08;100134.97;;;18.10;100.00
16194;BME280;8204;53.582;10.080;2022-07-22T05:42:34;100168.19;;;18.13;100.00
16194;BME280;8204;53.582;10.080;2022-07-22T05:45:01;100289.63;;;18.11;100.00
16194;BME280;8204;53.582;10.080;2022-07-22T05:47:27;100330.78;;;18.13;100.00
16194;BME280;8204;53.582;10.080;2022-07-22T05:49:54;100393.19;;;18.16;100.00
16194;BME280;8204;53.582;10.080;2022-07-22T05:52:20;100433.59;;;18.18;100.00
16194;BME280;8204;53.582;10.080;2022-07-22T05:54:48;100461.75;;;18.19;100.00
16194;BME280;8204;53.582;10.080;2022-07-22T05:57:15;100499.69;;;18.19;100.00
16194;BME280;8204;53.582;10.080;2022-07-22T05:59:41;100493.78;;;18.24;100.00
16194;BME280;8204;53.582;10.080;2022-07-22T06:02:08;100490.66;;;18.27;100.00
16194;BME280;8204;53.582;10.080;2022-07-22T06:04:34;100521.47;;;18.34;100.00
16194;BME280;8204;53.582;10.080;2022-07-22T06:07:01;100505.31;;;18.35;100.00
16194;BME280;8204;53.582;10.080;2022-07-22T06:09:27;100537.31;;;18.40;100.00
16194;BME280;8204;53.582;10.080;2022-07-22T06:11:55;100560.34;;;18.46;100.00
16194;BME280;8204;53.582;10.080;2022-07-22T06:14:21;100596.47;;;18.47;100.00
16194;BME280;8204;53.582;10.080;2022-07-22T06:16:48;100588.50;;;18.47;100.00
16194;BME280;8204;53.582;10.080;2022-07-22T06:19:14;100598.31;;;18.47;100.00
16194;BME280;8204;53.582;10.080;2022-07-22T06:21:41;100580.72;;;18.52;100.00
16194;BME280;8204;53.582;10.080;2022-07-22T06:24:07;100609.53;;;18.49;100.00
16194;BME280;8204;53.582;10.080;2022-07-22T06:26:34;100554.19;;;18.52;100.00
16194;BME280;8204;53.582;10.080;2022-07-22T06:29:02;100595.03;;;18.51;100.00
16194;BME280;8204;53.582;10.080;2022-07-22T06:31:28;100645.81;;;18.61;100.00
16194;BME280;8204;53.582;10.080;2022-07-22T06:33:55;100661.31;;;18.64;100.00
16194;BME280;8204;53.582;10.080;2022-07-22T06:36:21;100672.34;;;18.61;100.00
16194;BME280;8204;53.582;10.080;2022-07-22T06:38:48;100648.47;;;18.61;100.00
16194;BME280;8204;53.582;10.080;2022-07-22T06:41:15;100663.97;;;18.64;100.00
16194;BME280;8204;53.582;10.080;2022-07-22T06:43:44;100675.19;;;18.66;100.00
16194;BME280;8204;53.582;10.080;2022-07-22T06:46:12;100722.97;;;18.66;100.00
16194;BME280;8204;53.582;10.080;2022-07-22T06:48:38;100727.63;;;18.71;100.00
16194;BME280;8204;53.582;10.080;2022-07-22T06:51:05;100747.03;;;18.71;100.00
16194;BME280;8204;53.582;10.080;2022-07-22T06:53:31;100726.00;;;18.76;100.00
16194;BME280;8204;53.582;10.080;2022-07-22T06:55:58;100751.53;;;18.77;100.00
16194;BME280;8204;53.582;10.080;2022-07-22T06:58:25;100775.44;;;18.71;100.00
16194;BME280;8204;53.582;10.080;2022-07-22T07:00:51;100793.00;;;18.72;100.00
16194;BME280;8204;53.582;10.080;2022-07-22T07:03:19;100767.84;;;18.74;100.00
16194;BME280;8204;53.582;10.080;2022-07-22T07:05:47;100758.66;;;18.83;100.00
16194;BME280;8204;53.582;10.080;2022-07-22T07:08:13;100751.88;;;18.87;100.00
16194;BME280;8204;53.582;10.080;2022-07-22T07:10:40;100740.63;;;18.92;100.00
16194;BME280;8204;53.582;10.080;2022-07-22T07:13:06;100815.78;;;18.92;100.00
16194;BME280;8204;53.582;10.080;2022-07-22T07:15:33;100827.19;;;18.99;100.00
16194;BME280;8204;53.582;10.080;2022-07-22T07:17:59;100899.34;;;18.96;100.00
16194;BME280;8204;53.582;10.080;2022-07-22T07:20:27;100920.16;;;18.99;100.00
16194;BME280;8204;53.582;10.080;2022-07-22T07:22:54;100966.16;;;19.00;100.00
16194;BME280;8204;53.582;10.080;2022-07-22T07:25:21;100978.00;;;18.97;100.00
16194;BME280;8204;53.582;10.080;2022-07-22T07:27:47;101013.97;;;18.87;100.00
16194;BME280;8204;53.582;10.080;2022-07-22T07:30:14;100992.31;;;18.83;100.00
16194;BME280;8204;53.582;10.080;2022-07-22T07:32:40;100973.50;;;18.85;100.00
16194;BME280;8204;53.582;10.080;2022-07-22T07:35:07;100895.66;;;18.91;100.00
16194;BME280;8204;53.582;10.080;2022-07-22T07:37:35;100889.34;;;18.92;100.00
16194;BME280;8204;53.582;10.080;2022-07-22T07:40:03;100901.78;;;18.91;100.00
16194;BME280;8204;53.582;10.080;2022-07-22T07:42:29;100965.53;;;18.91;100.00
16194;BME280;8204;53.582;10.080;2022-07-22T07:44:56;100974.53;;;18.90;100.00
16194;BME280;8204;53.582;10.080;2022-07-22T07:47:22;100978.81;;;18.98;100.00
16194;BME280;8204;53.582;10.080;2022-07-22T07:49:49;101024.16;;;18.96;100.00
16194;BME280;8204;53.582;10.080;2022-07-22T07:52:16;101046.66;;;18.94;100.00
16194;BME280;8204;53.582;10.080;2022-07-22T07:54:44;101017.22;;;18.95;100.00
16194;BME280;8204;53.582;10.080;2022-07-22T07:57:12;100996.78;;;19.02;100.00
16194;BME280;8204;53.582;10.080;2022-07-22T07:59:39;101025.00;;;19.09;100.00
16194;BME280;8204;53.582;10.080;2022-07-22T08:02:06;101130.44;;;19.15;100.00
16194;BME280;8204;53.582;10.080;2022-07-22T08:04:33;101140.66;;;19.25;100.00
16194;BME280;8204;53.582;10.080;2022-07-22T08:07:00;101194.03;;;19.23;100.00
16194;BME280;8204;53.582;10.080;2022-07-22T08:09:26;101226.72;;;19.24;100.00
16194;BME280;8204;53.582;10.080;2022-07-22T08:11:54;101260.44;;;19.30;100.00
16194;BME280;8204;53.582;10.080;2022-07-22T08:14:21;101249.44;;;19.33;100.00
16194;BME280;8204;53.582;10.080;2022-07-22T08:16:48;101316.88;;;19.32;100.00
16194;BME280;8204;53.582;10.080;2022-07-22T08:19:14;101325.03;;;19.24;100.00
16194;BME280;8204;53.582;10.080;2022-07-22T08:21:41;101325.03;;;19.24;100.00
16194;BME280;8204;53.582;10.080;2022-07-22T08:24:08;101334.81;;;19.10;100.00
16194;BME280;8204;53.582;10.080;2022-07-22T08:26:35;101344.84;;;19.15;100.00
16194;BME280;8204;53.582;10.080;2022-07-22T08:29:03;101315.84;;;19.20;100.00
16194;BME280;8204;53.582;10.080;2022-07-22T08:31:31;101302.34;;;19.21;100.00
16194;BME280;8204;53.582;10.080;2022-07-22T08:34:00;101317.09;;;19.30;100.00
16194;BME280;8204;53.582;10.080;2022-07-22T08:36:26;101351.06;;;19.35;100.00
16194;BME280;8204;53.582;10.080;2022-07-22T08:38:53;101419.09;;;19.23;100.00
16194;BME280;8204;53.582;10.080;2022-07-22T08:41:21;101437.47;;;19.24;100.00
16194;BME280;8204;53.582;10.080;2022-07-22T08:43:50;101430.72;;;19.22;100.00
16194;BME280;8204;53.582;10.080;2022-07-22T08:46:19;101412.13;;;19.28;100.00
16194;BME280;8204;53.582;10.080;2022-07-22T08:48:45;101420.75;;;19.37;100.00
16194;BME280;8204;53.582;10.080;2022-07-22T08:51:12;101389.94;;;19.49;100.00
16194;BME280;8204;53.582;10.080;2022-07-22T08:53:39;101441.72;;;19.59;100.00
16194;BME280;8204;53.582;10.080;2022-07-22T08:56:06;101450.94;;;19.70;100.00
16194;BME280;8204;53.582;10.080;2022-07-22T08:58:33;101473.91;;;19.83;100.00
16194;BME280;8204;53.582;10.080;2022-07-22T09:01:07;101460.22;;;19.86;100.00
16194;BME280;8204;53.582;10.080;2022-07-22T09:03:44;101461.06;;;19.93;100.00
16194;BME280;8204;53.582;10.080;2022-07-22T09:06:12;101459.25;;;20.00;100.00
16194;BME280;8204;53.582;10.080;2022-07-22T09:08:52;101486.47;;;20.09;100.00
16194;BME280;8204;53.582;10.080;2022-07-22T09:11:21;101508.78;;;20.08;100.00
16194;BME280;8204;53.582;10.080;2022-07-22T09:13:48;101521.28;;;20.07;100.00
16194;BME280;8204;53.582;10.080;2022-07-22T09:16:15;101506.34;;;20.13;100.00
16194;BME280;8204;53.582;10.080;2022-07-22T09:18:47;101488.53;;;20.13;100.00
16194;BME280;8204;53.582;10.080;2022-07-22T09:21:14;101508.19;;;20.12;100.00
16194;BME280;8204;53.582;10.080;2022-07-22T09:23:41;101515.16;;;20.13;100.00
16194;BME280;8204;53.582;10.080;2022-07-22T09:26:08;101535.81;;;20.11;100.00
16194;BME280;8204;53.582;10.080;2022-07-22T09:28:34;101529.06;;;20.09;100.00
16194;BME280;8204;53.582;10.080;2022-07-22T09:31:03;101519.47;;;20.14;100.00
16194;BME280;8204;53.582;10.080;2022-07-22T09:33:31;101536.44;;;20.20;100.00
16194;BME280;8204;53.582;10.080;2022-07-22T09:36:03;101539.75;;;20.28;100.00
16194;BME280;8204;53.582;10.080;2022-07-22T09:38:30;101535.66;;;20.39;100.00
16194;BME280;8204;53.582;10.080;2022-07-22T09:40:59;101545.91;;;20.48;100.00
16194;BME280;8204;53.582;10.080;2022-07-22T09:43:27;101576.66;;;20.44;100.00
16194;BME280;8204;53.582;10.080;2022-07-22T09:45:59;101581.13;;;20.37;100.00
16194;BME280;8204;53.582;10.080;2022-07-22T09:48:26;101589.72;;;20.33;100.00
16194;BME280;8204;53.582;10.080;2022-07-22T09:50:54;101584.59;;;20.31;100.00
16194;BME280;8204;53.582;10.080;2022-07-22T09:53:25;101565.94;;;20.18;100.00
16194;BME280;8204;53.582;10.080;2022-07-22T09:55:53;101561.63;;;20.11;100.00
16194;BME280;8204;53.582;10.080;2022-07-22T09:58:20;101572.88;;;20.13;100.00
16194;BME280;8204;53.582;10.080;2022-07-22T10:00:47;101568.16;;;20.08;100.00
16194;BME280;8204;53.582;10.080;2022-07-22T10:03:18;101560.56;;;20.05;100.00
16194;BME280;8204;53.582;10.080;2022-07-22T10:05:47;101563.88;;;20.07;100.00
16194;BME280;8204;53.582;10.080;2022-07-22T10:08:15;101587.63;;;20.15;100.00
16194;BME280;8204;53.582;10.080;2022-07-22T10:10:42;101582.28;;;20.15;100.00
16194;BME280;8204;53.582;10.080;2022-07-22T10:13:09;101587.66;;;20.22;100.00
16194;BME280;8204;53.582;10.080;2022-07-22T10:15:37;101595.03;;;20.26;100.00
16194;BME280;8204;53.582;10.080;2022-07-22T10:18:05;101593.00;;;20.35;100.00
16194;BME280;8204;53.582;10.080;2022-07-22T10:20:33;101584.44;;;20.46;100.00
16194;BME280;8204;53.582;10.080;2022-07-22T10:23:00;101588.13;;;20.51;100.00
16194;BME280;8204;53.582;10.080;2022-07-22T10:25:28;101599.22;;;20.54;100.00
16194;BME280;8204;53.582;10.080;2022-07-22T10:27:57;101609.81;;;20.48;100.00
16194;BME280;8204;53.582;10.080;2022-07-22T10:30:26;101604.09;;;20.45;100.00
16194;BME280;8204;53.582;10.080;2022-07-22T10:33:02;101604.50;;;20.48;100.00
16194;BME280;8204;53.582;10.080;2022-07-22T10:35:33;101597.56;;;20.47;100.00
16194;BME280;8204;53.582;10.080;2022-07-22T10:38:05;101618.44;;;20.50;100.00
16194;BME280;8204;53.582;10.080;2022-07-22T10:40:47;101605.94;;;20.44;100.00
16194;BME280;8204;53.582;10.080;2022-07-22T10:43:16;101587.28;;;20.31;100.00
16194;BME280;8204;53.582;10.080;2022-07-22T10:45:46;101593.22;;;20.33;100.00
16194;BME280;8204;53.582;10.080;2022-07-22T10:48:15;101591.78;;;20.37;100.00
16194;BME280;8204;53.582;10.080;2022-07-22T10:50:44;101598.34;;;20.35;100.00
16194;BME280;8204;53.582;10.080;2022-07-22T10:53:13;101587.69;;;20.41;100.00
16194;BME280;8204;53.582;10.080;2022-07-22T10:56:02;101610.47;;;20.50;100.00
16194;BME280;8204;53.582;10.080;2022-07-22T10:58:44;101622.53;;;20.46;100.00
16194;BME280;8204;53.582;10.080;2022-07-22T11:01:12;101623.34;;;20.47;100.00
16194;BME280;8204;53.582;10.080;2022-07-22T11:03:41;101614.13;;;20.49;100.00
16194;BME280;8204;53.582;10.080;2022-07-22T11:06:14;101619.28;;;20.57;100.00
16194;BME280;8204;53.582;10.080;2022-07-22T11:08:42;101630.91;;;20.43;100.00
16194;BME280;8204;53.582;10.080;2022-07-22T11:11:09;101635.22;;;20.44;100.00
16194;BME280;8204;53.582;10.080;2022-07-22T11:13:37;101628.88;;;20.45;100.00
16194;BME280;8204;53.582;10.080;2022-07-22T11:16:18;101633.19;;;20.46;100.00
16194;BME280;8204;53.582;10.080;2022-07-22T11:18:50;101639.31;;;20.40;100.00
16194;BME280;8204;53.582;10.080;2022-07-22T11:21:19;101622.31;;;20.41;100.00
16194;BME280;8204;53.582;10.080;2022-07-22T11:23:48;101631.72;;;20.37;100.00
16194;BME280;8204;53.582;10.080;2022-07-22T11:26:17;101616.38;;;20.39;100.00
16194;BME280;8204;53.582;10.080;2022-07-22T11:28:44;101632.56;;;20.44;100.00
16194;BME280;8204;53.582;10.080;2022-07-22T11:31:16;101632.81;;;20.55;100.00
16194;BME280;8204;53.582;10.080;2022-07-22T11:33:43;101639.13;;;20.48;100.00
16194;BME280;8204;53.582;10.080;2022-07-22T11:36:10;101635.25;;;20.57;100.00
16194;BME280;8204;53.582;10.080;2022-07-22T11:38:42;101639.59;;;20.71;100.00
16194;BME280;8204;53.582;10.080;2022-07-22T11:41:08;101655.97;;;20.68;100.00
16194;BME280;8204;53.582;10.080;2022-07-22T11:43:39;101644.09;;;20.64;100.00
16194;BME280;8204;53.582;10.080;2022-07-22T11:46:06;101646.75;;;20.70;100.00
16194;BME280;8204;53.582;10.080;2022-07-22T11:48:33;101641.25;;;20.72;100.00
16194;BME280;8204;53.582;10.080;2022-07-22T11:51:01;101643.69;;;20.73;100.00
16194;BME280;8204;53.582;10.080;2022-07-22T11:53:28;101648.41;;;20.71;100.00
16194;BME280;8204;53.582;10.080;2022-07-22T11:55:57;101652.88;;;20.64;100.00
16194;BME280;8204;53.582;10.080;2022-07-22T11:58:39;101651.66;;;20.67;100.00
16194;BME280;8204;53.582;10.080;2022-07-22T12:01:06;101652.72;;;20.66;100.00
16194;BME280;8204;53.582;10.080;2022-07-22T12:03:36;101657.59;;;20.56;100.00
16194;BME280;8204;53.582;10.080;2022-07-22T12:06:04;101657.59;;;20.56;100.00
16194;BME280;8204;53.582;10.080;2022-07-22T12:08:32;101657.00;;;20.60;100.00
16194;BME280;8204;53.582;10.080;2022-07-22T12:10:59;101657.78;;;20.61;100.00
16194;BME280;8204;53.582;10.080;2022-07-22T12:13:29;101652.06;;;20.70;100.00
16194;BME280;8204;53.582;10.080;2022-07-22T12:15:56;101657.69;;;20.82;100.00
16194;BME280;8204;53.582;10.080;2022-07-22T12:18:25;101665.66;;;20.82;100.00
16194;BME280;8204;53.582;10.080;2022-07-22T12:20:54;101663.22;;;20.80;100.00
16194;BME280;8204;53.582;10.080;2022-07-22T12:23:23;101671.81;;;20.76;100.00
16194;BME280;8204;53.582;10.080;2022-07-22T12:25:51;101675.25;;;20.70;100.00
16194;BME280;8204;53.582;10.080;2022-07-22T12:28:18;101661.72;;;20.65;100.00
16194;BME280;8204;53.582;10.080;2022-07-22T12:30:45;101666.84;;;20.66;100.00
16194;BME280;8204;53.582;10.080;2022-07-22T12:33:13;101663.75;;;20.63;100.00
16194;BME280;8204;53.582;10.080;2022-07-22T12:35:40;101654.13;;;20.62;100.00
16194;BME280;8204;53.582;10.080;2022-07-22T12:38:08;101664.97;;;20.60;100.00
16194;BME280;8204;53.582;10.080;2022-07-22T12:40:37;101663.13;;;20.61;100.00
16194;BME280;8204;53.582;10.080;2022-07-22T12:43:04;101672.38;;;20.65;100.00